sensor_id;sensor_type;location;lat;lon;timestamp;P1;durP1;ratioP1;P2;durP2;ratioP2
74213;SDS011;62576;55.694;37.494;2024-03-17T00:00:45;32.13;;;7.18;;
74213;SDS011;62576;55.694;37.494;2024-03-17T00:03:15;30.10;;;7.13;;
74213;SDS011;62576;55.694;37.494;2024-03-17T00:05:46;37.72;;;7.90;;
74213;SDS011;62576;55.694;37.494;2024-03-17T00:08:17;33.08;;;7.57;;
74213;SDS011;62576;55.694;37.494;2024-03-17T00:10:49;28.25;;;7.47;;
74213;SDS011;62576;55.694;37.494;2024-03-17T00:13:20;31.13;;;7.40;;
74213;SDS011;62576;55.694;37.494;2024-03-17T00:15:51;34.20;;;7.30;;
74213;SDS011;62576;55.694;37.494;2024-03-17T00:18:22;27.63;;;6.93;;
74213;SDS011;62576;55.694;37.494;2024-03-17T00:20:53;26.40;;;7.00;;
74213;SDS011;62576;55.694;37.494;2024-03-17T00:23:24;29.90;;;7.18;;
74213;SDS011;62576;55.694;37.494;2024-03-17T00:25:54;42.10;;;7.63;;
74213;SDS011;62576;55.694;37.494;2024-03-17T00:28:24;30.60;;;7.22;;
74213;SDS011;62576;55.694;37.494;2024-03-17T00:30:55;29.10;;;8.18;;
74213;SDS011;62576;55.694;37.494;2024-03-17T00:33:25;28.60;;;8.13;;
74213;SDS011;62576;55.694;37.494;2024-03-17T00:35:54;32.97;;;7.28;;
74213;SDS011;62576;55.694;37.494;2024-03-17T00:38:25;30.08;;;6.57;;
74213;SDS011;62576;55.694;37.494;2024-03-17T00:40:51;36.42;;;8.15;;
74213;SDS011;62576;55.694;37.494;2024-03-17T00:43:21;29.75;;;6.95;;
74213;SDS011;62576;55.694;37.494;2024-03-17T00:45:51;36.72;;;7.93;;
74213;SDS011;62576;55.694;37.494;2024-03-17T00:48:23;31.40;;;7.43;;
74213;SDS011;62576;55.694;37.494;2024-03-17T00:50:56;33.13;;;7.43;;
74213;SDS011;62576;55.694;37.494;2024-03-17T00:53:27;28.00;;;7.00;;
74213;SDS011;62576;55.694;37.494;2024-03-17T00:55:58;36.17;;;8.13;;
74213;SDS011;62576;55.694;37.494;2024-03-17T00:58:29;28.40;;;7.20;;
74213;SDS011;62576;55.694;37.494;2024-03-17T01:00:59;32.90;;;7.85;;
74213;SDS011;62576;55.694;37.494;2024-03-17T01:03:35;28.40;;;7.00;;
74213;SDS011;62576;55.694;37.494;2024-03-17T01:06:07;30.55;;;8.02;;
74213;SDS011;62576;55.694;37.494;2024-03-17T01:08:34;36.85;;;8.75;;
74213;SDS011;62576;55.694;37.494;2024-03-17T01:11:04;31.13;;;7.60;;
74213;SDS011;62576;55.694;37.494;2024-03-17T01:13:36;35.83;;;8.20;;
74213;SDS011;62576;55.694;37.494;2024-03-17T01:16:09;32.23;;;8.07;;
74213;SDS011;62576;55.694;37.494;2024-03-17T01:18:40;30.17;;;7.95;;
74213;SDS011;62576;55.694;37.494;2024-03-17T01:21:11;31.33;;;7.93;;
74213;SDS011;62576;55.694;37.494;2024-03-17T01:23:40;24.67;;;6.15;;
74213;SDS011;62576;55.694;37.494;2024-03-17T01:26:11;41.08;;;7.57;;
74213;SDS011;62576;55.694;37.494;2024-03-17T01:28:40;33.22;;;7.90;;
74213;SDS011;62576;55.694;37.494;2024-03-17T02:33:50;36.80;;;7.70;;
74213;SDS011;62576;55.694;37.494;2024-03-17T03:07:13;32.97;;;8.43;;
74213;SDS011;62576;55.694;37.494;2024-03-17T03:09:43;40.70;;;8.05;;
74213;SDS011;62576;55.694;37.494;2024-03-17T03:12:14;32.75;;;8.05;;
74213;SDS011;62576;55.694;37.494;2024-03-17T03:14:44;38.08;;;8.20;;
74213;SDS011;62576;55.694;37.494;2024-03-17T03:17:15;27.15;;;7.35;;
74213;SDS011;62576;55.694;37.494;2024-03-17T03:19:45;35.22;;;8.20;;
74213;SDS011;62576;55.694;37.494;2024-03-17T03:22:17;32.47;;;8.43;;
74213;SDS011;62576;55.694;37.494;2024-03-17T03:24:51;34.63;;;7.95;;
74213;SDS011;62576;55.694;37.494;2024-03-17T03:27:22;45.55;;;8.93;;
74213;SDS011;62576;55.694;37.494;2024-03-17T03:29:52;33.28;;;7.78;;
74213;SDS011;62576;55.694;37.494;2024-03-17T03:32:24;26.33;;;8.05;;
74213;SDS011;62576;55.694;37.494;2024-03-17T03:34:55;31.13;;;7.72;;
74213;SDS011;62576;55.694;37.494;2024-03-17T03:37:27;39.60;;;8.25;;
74213;SDS011;62576;55.694;37.494;2024-03-17T03:40:00;31.77;;;8.52;;
74213;SDS011;62576;55.694;37.494;2024-03-17T03:42:36;25.52;;;7.55;;
74213;SDS011;62576;55.694;37.494;2024-03-17T03:45:07;32.58;;;8.73;;
74213;SDS011;62576;55.694;37.494;2024-03-17T03:47:40;21.55;;;7.65;;
74213;SDS011;62576;55.694;37.494;2024-03-17T03:50:12;39.67;;;8.35;;
74213;SDS011;62576;55.694;37.494;2024-03-17T03:52:46;32.28;;;8.18;;
74213;SDS011;62576;55.694;37.494;2024-03-17T03:55:16;38.30;;;8.20;;
74213;SDS011;62576;55.694;37.494;2024-03-17T03:57:47;39.78;;;9.13;;
74213;SDS011;62576;55.694;37.494;2024-03-17T04:00:20;32.55;;;8.93;;
74213;SDS011;62576;55.694;37.494;2024-03-17T04:02:52;33.38;;;8.40;;
74213;SDS011;62576;55.694;37.494;2024-03-17T04:05:21;31.13;;;7.85;;
74213;SDS011;62576;55.694;37.494;2024-03-17T04:07:53;31.08;;;8.07;;
74213;SDS011;62576;55.694;37.494;2024-03-17T04:10:24;38.58;;;8.65;;
74213;SDS011;62576;55.694;37.494;2024-03-17T04:12:54;35.05;;;8.75;;
74213;SDS011;62576;55.694;37.494;2024-03-17T04:15:25;35.05;;;8.13;;
74213;SDS011;62576;55.694;37.494;2024-03-17T04:17:55;33.70;;;7.80;;
74213;SDS011;62576;55.694;37.494;2024-03-17T04:20:26;39.83;;;8.80;;
74213;SDS011;62576;55.694;37.494;2024-03-17T04:22:58;36.60;;;8.45;;
74213;SDS011;62576;55.694;37.494;2024-03-17T04:25:28;46.83;;;8.70;;
74213;SDS011;62576;55.694;37.494;2024-03-17T04:27:58;28.15;;;8.73;;
74213;SDS011;62576;55.694;37.494;2024-03-17T04:30:31;29.30;;;8.98;;
74213;SDS011;62576;55.694;37.494;2024-03-17T04:40:09;35.40;;;8.75;;
74213;SDS011;62576;55.694;37.494;2024-03-17T04:42:40;37.78;;;8.75;;
74213;SDS011;62576;55.694;37.494;2024-03-17T04:45:10;39.17;;;8.40;;
74213;SDS011;62576;55.694;37.494;2024-03-17T04:47:41;28.40;;;8.30;;
74213;SDS011;62576;55.694;37.494;2024-03-17T04:50:12;35.85;;;9.07;;
74213;SDS011;62576;55.694;37.494;2024-03-17T04:52:43;36.90;;;8.85;;
74213;SDS011;62576;55.694;37.494;2024-03-17T04:55:15;38.67;;;8.63;;
74213;SDS011;62576;55.694;37.494;2024-03-17T04:57:47;38.83;;;9.52;;
74213;SDS011;62576;55.694;37.494;2024-03-17T05:00:18;37.55;;;9.10;;
74213;SDS011;62576;55.694;37.494;2024-03-17T05:02:49;32.92;;;9.25;;
74213;SDS011;62576;55.694;37.494;2024-03-17T05:05:22;31.70;;;8.87;;
74213;SDS011;62576;55.694;37.494;2024-03-17T05:07:55;36.45;;;9.60;;
74213;SDS011;62576;55.694;37.494;2024-03-17T05:10:27;34.35;;;9.65;;
74213;SDS011;62576;55.694;37.494;2024-03-17T05:12:58;31.30;;;9.00;;
74213;SDS011;62576;55.694;37.494;2024-03-17T05:15:28;37.95;;;8.63;;
74213;SDS011;62576;55.694;37.494;2024-03-17T05:17:59;35.65;;;9.48;;
74213;SDS011;62576;55.694;37.494;2024-03-17T05:20:30;31.95;;;8.35;;
74213;SDS011;62576;55.694;37.494;2024-03-17T05:23:00;37.35;;;8.60;;
74213;SDS011;62576;55.694;37.494;2024-03-17T05:25:32;41.63;;;9.13;;
74213;SDS011;62576;55.694;37.494;2024-03-17T05:28:05;29.58;;;9.30;;
74213;SDS011;62576;55.694;37.494;2024-03-17T05:30:35;35.42;;;9.05;;
74213;SDS011;62576;55.694;37.494;2024-03-17T05:33:06;36.42;;;8.73;;
74213;SDS011;62576;55.694;37.494;2024-03-17T05:35:36;33.90;;;9.82;;
74213;SDS011;62576;55.694;37.494;2024-03-17T05:38:06;45.03;;;8.68;;
74213;SDS011;62576;55.694;37.494;2024-03-17T05:40:40;43.10;;;8.65;;
74213;SDS011;62576;55.694;37.494;2024-03-17T05:43:10;35.53;;;9.43;;
74213;SDS011;62576;55.694;37.494;2024-03-17T05:45:40;37.42;;;9.57;;
74213;SDS011;62576;55.694;37.494;2024-03-17T05:48:12;34.65;;;9.43;;
74213;SDS011;62576;55.694;37.494;2024-03-17T05:50:42;42.05;;;10.43;;
74213;SDS011;62576;55.694;37.494;2024-03-17T05:53:12;41.17;;;9.90;;
74213;SDS011;62576;55.694;37.494;2024-03-17T05:55:44;39.92;;;9.40;;
74213;SDS011;62576;55.694;37.494;2024-03-17T05:58:15;43.78;;;11.32;;
74213;SDS011;62576;55.694;37.494;2024-03-17T06:00:45;39.40;;;9.75;;
74213;SDS011;62576;55.694;37.494;2024-03-17T06:03:16;34.88;;;9.23;;
74213;SDS011;62576;55.694;37.494;2024-03-17T06:05:47;36.20;;;9.77;;
74213;SDS011;62576;55.694;37.494;2024-03-17T06:08:17;37.47;;;10.13;;
74213;SDS011;62576;55.694;37.494;2024-03-17T06:10:50;41.05;;;9.82;;
74213;SDS011;62576;55.694;37.494;2024-03-17T06:13:20;42.58;;;10.48;;
74213;SDS011;62576;55.694;37.494;2024-03-17T06:15:51;43.60;;;10.32;;
74213;SDS011;62576;55.694;37.494;2024-03-17T06:18:21;42.38;;;10.02;;
74213;SDS011;62576;55.694;37.494;2024-03-17T06:20:52;39.40;;;11.40;;
74213;SDS011;62576;55.694;37.494;2024-03-17T06:23:22;46.08;;;10.68;;
74213;SDS011;62576;55.694;37.494;2024-03-17T06:25:54;45.85;;;10.20;;
74213;SDS011;62576;55.694;37.494;2024-03-17T06:28:24;45.13;;;9.83;;
74213;SDS011;62576;55.694;37.494;2024-03-17T06:30:55;47.38;;;10.40;;
74213;SDS011;62576;55.694;37.494;2024-03-17T06:33:28;40.60;;;10.75;;
74213;SDS011;62576;55.694;37.494;2024-03-17T06:36:01;44.25;;;11.20;;
74213;SDS011;62576;55.694;37.494;2024-03-17T06:38:32;48.58;;;11.15;;
74213;SDS011;62576;55.694;37.494;2024-03-17T06:41:04;39.13;;;10.50;;
74213;SDS011;62576;55.694;37.494;2024-03-17T06:43:35;42.05;;;10.25;;
74213;SDS011;62576;55.694;37.494;2024-03-17T06:46:07;38.85;;;10.25;;
74213;SDS011;62576;55.694;37.494;2024-03-17T06:48:37;45.38;;;12.23;;
74213;SDS011;62576;55.694;37.494;2024-03-17T06:51:07;42.60;;;10.68;;
74213;SDS011;62576;55.694;37.494;2024-03-17T06:53:38;43.10;;;11.88;;
74213;SDS011;62576;55.694;37.494;2024-03-17T06:56:09;55.75;;;11.43;;
74213;SDS011;62576;55.694;37.494;2024-03-17T06:58:44;46.17;;;12.07;;
74213;SDS011;62576;55.694;37.494;2024-03-17T07:26:00;57.35;;;12.93;;
74213;SDS011;62576;55.694;37.494;2024-03-17T07:45:32;57.92;;;12.50;;
74213;SDS011;62576;55.694;37.494;2024-03-17T07:48:02;56.47;;;12.13;;
74213;SDS011;62576;55.694;37.494;2024-03-17T07:50:32;56.65;;;13.02;;
74213;SDS011;62576;55.694;37.494;2024-03-17T07:53:03;63.03;;;13.65;;
74213;SDS011;62576;55.694;37.494;2024-03-17T07:55:30;70.57;;;14.25;;
74213;SDS011;62576;55.694;37.494;2024-03-17T07:58:00;61.40;;;13.25;;
74213;SDS011;62576;55.694;37.494;2024-03-17T08:00:32;50.20;;;13.35;;
74213;SDS011;62576;55.694;37.494;2024-03-17T08:03:02;52.90;;;12.82;;
74213;SDS011;62576;55.694;37.494;2024-03-17T08:05:36;53.53;;;12.27;;
74213;SDS011;62576;55.694;37.494;2024-03-17T08:08:34;54.70;;;12.30;;
74213;SDS011;62576;55.694;37.494;2024-03-17T08:11:04;62.30;;;11.93;;
74213;SDS011;62576;55.694;37.494;2024-03-17T08:13:35;59.33;;;11.80;;
74213;SDS011;62576;55.694;37.494;2024-03-17T08:16:07;49.83;;;11.40;;
74213;SDS011;62576;55.694;37.494;2024-03-17T08:18:38;45.92;;;12.00;;
74213;SDS011;62576;55.694;37.494;2024-03-17T08:21:08;51.13;;;11.55;;
74213;SDS011;62576;55.694;37.494;2024-03-17T08:23:39;51.72;;;11.20;;
74213;SDS011;62576;55.694;37.494;2024-03-17T08:26:11;43.72;;;11.13;;
74213;SDS011;62576;55.694;37.494;2024-03-17T08:28:41;52.97;;;11.30;;
74213;SDS011;62576;55.694;37.494;2024-03-17T08:31:14;48.70;;;10.45;;
74213;SDS011;62576;55.694;37.494;2024-03-17T08:33:45;48.80;;;11.32;;
74213;SDS011;62576;55.694;37.494;2024-03-17T08:36:16;49.40;;;11.63;;
74213;SDS011;62576;55.694;37.494;2024-03-17T08:41:19;42.85;;;9.98;;
74213;SDS011;62576;55.694;37.494;2024-03-17T09:09:38;52.90;;;11.30;;
74213;SDS011;62576;55.694;37.494;2024-03-17T09:12:25;55.83;;;12.13;;
74213;SDS011;62576;55.694;37.494;2024-03-17T09:14:57;47.47;;;11.70;;
74213;SDS011;62576;55.694;37.494;2024-03-17T09:17:27;39.40;;;11.40;;
74213;SDS011;62576;55.694;37.494;2024-03-17T09:19:57;48.80;;;12.40;;
74213;SDS011;62576;55.694;37.494;2024-03-17T09:22:29;40.83;;;11.43;;
74213;SDS011;62576;55.694;37.494;2024-03-17T09:25:00;48.10;;;11.85;;
74213;SDS011;62576;55.694;37.494;2024-03-17T09:27:30;49.63;;;11.35;;
74213;SDS011;62576;55.694;37.494;2024-03-17T09:30:15;46.92;;;10.52;;
74213;SDS011;62576;55.694;37.494;2024-03-17T09:32:45;45.78;;;11.27;;
74213;SDS011;62576;55.694;37.494;2024-03-17T09:35:16;40.55;;;11.38;;
74213;SDS011;62576;55.694;37.494;2024-03-17T09:37:46;50.85;;;11.90;;
74213;SDS011;62576;55.694;37.494;2024-03-17T09:40:17;39.33;;;11.70;;
74213;SDS011;62576;55.694;37.494;2024-03-17T09:42:52;44.45;;;12.25;;
74213;SDS011;62576;55.694;37.494;2024-03-17T09:45:24;46.15;;;11.48;;
74213;SDS011;62576;55.694;37.494;2024-03-17T09:47:57;41.03;;;12.13;;
74213;SDS011;62576;55.694;37.494;2024-03-17T09:50:27;47.83;;;11.70;;
74213;SDS011;62576;55.694;37.494;2024-03-17T09:52:58;45.53;;;10.73;;
74213;SDS011;62576;55.694;37.494;2024-03-17T09:55:28;41.03;;;10.18;;
74213;SDS011;62576;55.694;37.494;2024-03-17T09:58:00;47.28;;;11.32;;
74213;SDS011;62576;55.694;37.494;2024-03-17T10:00:32;49.70;;;10.13;;
74213;SDS011;62576;55.694;37.494;2024-03-17T10:03:02;46.03;;;10.65;;
74213;SDS011;62576;55.694;37.494;2024-03-17T10:05:32;44.60;;;9.95;;
74213;SDS011;62576;55.694;37.494;2024-03-17T10:08:03;40.45;;;10.95;;
74213;SDS011;62576;55.694;37.494;2024-03-17T10:10:34;47.90;;;10.23;;
74213;SDS011;62576;55.694;37.494;2024-03-17T10:13:04;30.02;;;8.80;;
74213;SDS011;62576;55.694;37.494;2024-03-17T10:15:49;37.30;;;9.40;;
74213;SDS011;62576;55.694;37.494;2024-03-17T10:18:22;41.65;;;10.50;;
74213;SDS011;62576;55.694;37.494;2024-03-17T10:20:53;32.80;;;9.95;;
74213;SDS011;62576;55.694;37.494;2024-03-17T10:23:25;36.22;;;9.32;;
74213;SDS011;62576;55.694;37.494;2024-03-17T10:25:56;34.17;;;9.68;;
74213;SDS011;62576;55.694;37.494;2024-03-17T10:28:23;39.22;;;10.05;;
74213;SDS011;62576;55.694;37.494;2024-03-17T10:30:59;32.80;;;9.27;;
74213;SDS011;62576;55.694;37.494;2024-03-17T10:33:30;42.08;;;10.43;;
74213;SDS011;62576;55.694;37.494;2024-03-17T10:36:01;41.65;;;9.98;;
74213;SDS011;62576;55.694;37.494;2024-03-17T10:38:33;42.97;;;10.30;;
74213;SDS011;62576;55.694;37.494;2024-03-17T10:41:04;33.08;;;8.57;;
74213;SDS011;62576;55.694;37.494;2024-03-17T10:43:35;40.35;;;8.77;;
74213;SDS011;62576;55.694;37.494;2024-03-17T10:46:08;42.78;;;9.90;;
74213;SDS011;62576;55.694;37.494;2024-03-17T10:48:43;43.70;;;8.55;;
74213;SDS011;62576;55.694;37.494;2024-03-17T10:51:16;35.90;;;9.00;;
74213;SDS011;62576;55.694;37.494;2024-03-17T10:53:57;32.72;;;8.27;;
74213;SDS011;62576;55.694;37.494;2024-03-17T10:57:13;31.75;;;8.32;;
74213;SDS011;62576;55.694;37.494;2024-03-17T10:59:55;31.20;;;8.95;;
74213;SDS011;62576;55.694;37.494;2024-03-17T11:02:40;33.20;;;8.25;;
74213;SDS011;62576;55.694;37.494;2024-03-17T11:05:11;38.15;;;8.70;;
74213;SDS011;62576;55.694;37.494;2024-03-17T11:07:45;41.60;;;9.65;;
74213;SDS011;62576;55.694;37.494;2024-03-17T11:10:16;47.28;;;12.00;;
74213;SDS011;62576;55.694;37.494;2024-03-17T11:15:36;41.13;;;9.20;;
74213;SDS011;62576;55.694;37.494;2024-03-17T11:21:05;36.15;;;8.15;;
74213;SDS011;62576;55.694;37.494;2024-03-17T11:26:10;37.92;;;8.85;;
74213;SDS011;62576;55.694;37.494;2024-03-17T11:28:45;38.15;;;9.52;;
74213;SDS011;62576;55.694;37.494;2024-03-17T11:34:27;40.90;;;9.88;;
74213;SDS011;62576;55.694;37.494;2024-03-17T11:37:03;38.90;;;7.95;;
74213;SDS011;62576;55.694;37.494;2024-03-17T11:42:17;37.72;;;8.55;;
74213;SDS011;62576;55.694;37.494;2024-03-17T11:44:58;53.33;;;9.85;;
74213;SDS011;62576;55.694;37.494;2024-03-17T11:47:36;58.28;;;9.88;;
74213;SDS011;62576;55.694;37.494;2024-03-17T11:50:10;49.25;;;9.63;;
74213;SDS011;62576;55.694;37.494;2024-03-17T11:52:40;55.50;;;9.95;;
74213;SDS011;62576;55.694;37.494;2024-03-17T11:55:15;41.53;;;9.45;;
74213;SDS011;62576;55.694;37.494;2024-03-17T11:57:45;35.03;;;8.85;;
74213;SDS011;62576;55.694;37.494;2024-03-17T12:00:19;49.33;;;8.82;;
74213;SDS011;62576;55.694;37.494;2024-03-17T12:02:49;47.53;;;9.75;;
74213;SDS011;62576;55.694;37.494;2024-03-17T12:05:24;43.75;;;9.30;;
74213;SDS011;62576;55.694;37.494;2024-03-17T12:07:55;49.83;;;8.75;;
74213;SDS011;62576;55.694;37.494;2024-03-17T12:10:25;64.70;;;9.80;;
74213;SDS011;62576;55.694;37.494;2024-03-17T12:12:55;55.58;;;10.27;;
74213;SDS011;62576;55.694;37.494;2024-03-17T12:15:24;41.28;;;8.05;;
74213;SDS011;62576;55.694;37.494;2024-03-17T12:17:55;47.67;;;8.30;;
74213;SDS011;62576;55.694;37.494;2024-03-17T12:20:44;41.08;;;9.13;;
74213;SDS011;62576;55.694;37.494;2024-03-17T12:23:18;56.80;;;9.48;;
74213;SDS011;62576;55.694;37.494;2024-03-17T12:25:49;56.42;;;9.27;;
74213;SDS011;62576;55.694;37.494;2024-03-17T12:28:18;60.67;;;8.43;;
74213;SDS011;62576;55.694;37.494;2024-03-17T12:30:48;62.42;;;9.50;;
74213;SDS011;62576;55.694;37.494;2024-03-17T12:33:22;52.33;;;9.95;;
74213;SDS011;62576;55.694;37.494;2024-03-17T12:35:53;56.70;;;9.30;;
74213;SDS011;62576;55.694;37.494;2024-03-17T12:38:28;66.57;;;10.70;;
74213;SDS011;62576;55.694;37.494;2024-03-17T12:40:57;51.72;;;8.75;;
74213;SDS011;62576;55.694;37.494;2024-03-17T12:43:27;62.67;;;10.13;;
74213;SDS011;62576;55.694;37.494;2024-03-17T12:45:56;55.05;;;9.52;;
74213;SDS011;62576;55.694;37.494;2024-03-17T12:48:27;57.45;;;11.00;;
74213;SDS011;62576;55.694;37.494;2024-03-17T12:50:58;63.15;;;9.93;;
74213;SDS011;62576;55.694;37.494;2024-03-17T12:53:29;56.47;;;11.07;;
74213;SDS011;62576;55.694;37.494;2024-03-17T12:55:59;53.72;;;9.50;;
74213;SDS011;62576;55.694;37.494;2024-03-17T12:58:46;56.75;;;9.20;;
74213;SDS011;62576;55.694;37.494;2024-03-17T13:01:34;57.20;;;10.45;;
74213;SDS011;62576;55.694;37.494;2024-03-17T13:04:06;60.83;;;10.57;;
74213;SDS011;62576;55.694;37.494;2024-03-17T13:06:41;69.18;;;10.82;;
74213;SDS011;62576;55.694;37.494;2024-03-17T13:09:11;71.90;;;10.23;;
74213;SDS011;62576;55.694;37.494;2024-03-17T13:11:42;48.03;;;9.10;;
74213;SDS011;62576;55.694;37.494;2024-03-17T13:14:13;53.25;;;9.05;;
74213;SDS011;62576;55.694;37.494;2024-03-17T13:16:45;66.03;;;9.25;;
74213;SDS011;62576;55.694;37.494;2024-03-17T13:19:16;51.80;;;9.63;;
74213;SDS011;62576;55.694;37.494;2024-03-17T13:21:48;57.40;;;10.38;;
74213;SDS011;62576;55.694;37.494;2024-03-17T13:24:19;55.72;;;9.57;;
74213;SDS011;62576;55.694;37.494;2024-03-17T13:26:49;47.35;;;8.55;;
74213;SDS011;62576;55.694;37.494;2024-03-17T13:29:23;65.03;;;9.27;;
74213;SDS011;62576;55.694;37.494;2024-03-17T13:31:54;50.10;;;8.32;;
74213;SDS011;62576;55.694;37.494;2024-03-17T13:34:24;54.08;;;8.57;;
74213;SDS011;62576;55.694;37.494;2024-03-17T13:36:56;48.35;;;7.72;;
74213;SDS011;62576;55.694;37.494;2024-03-17T13:39:29;58.20;;;8.35;;
74213;SDS011;62576;55.694;37.494;2024-03-17T13:42:01;63.30;;;8.85;;
74213;SDS011;62576;55.694;37.494;2024-03-17T13:44:32;44.47;;;8.55;;
74213;SDS011;62576;55.694;37.494;2024-03-17T13:47:03;49.90;;;8.15;;
74213;SDS011;62576;55.694;37.494;2024-03-17T13:49:33;38.70;;;7.68;;
74213;SDS011;62576;55.694;37.494;2024-03-17T13:52:06;41.72;;;8.02;;
74213;SDS011;62576;55.694;37.494;2024-03-17T13:54:37;41.85;;;7.88;;
74213;SDS011;62576;55.694;37.494;2024-03-17T13:57:07;41.53;;;8.15;;
74213;SDS011;62576;55.694;37.494;2024-03-17T13:59:38;44.97;;;7.78;;
74213;SDS011;62576;55.694;37.494;2024-03-17T14:02:09;43.22;;;8.90;;
74213;SDS011;62576;55.694;37.494;2024-03-17T14:04:43;51.22;;;7.68;;
74213;SDS011;62576;55.694;37.494;2024-03-17T14:07:15;41.33;;;7.60;;
74213;SDS011;62576;55.694;37.494;2024-03-17T14:09:45;33.17;;;7.60;;
74213;SDS011;62576;55.694;37.494;2024-03-17T14:12:16;39.38;;;7.55;;
74213;SDS011;62576;55.694;37.494;2024-03-17T14:14:46;38.20;;;7.22;;
74213;SDS011;62576;55.694;37.494;2024-03-17T14:17:16;41.03;;;7.78;;
74213;SDS011;62576;55.694;37.494;2024-03-17T14:19:47;42.53;;;7.38;;
74213;SDS011;62576;55.694;37.494;2024-03-17T14:22:19;42.28;;;7.53;;
74213;SDS011;62576;55.694;37.494;2024-03-17T14:24:49;33.95;;;7.72;;
74213;SDS011;62576;55.694;37.494;2024-03-17T14:27:17;32.72;;;7.55;;
74213;SDS011;62576;55.694;37.494;2024-03-17T14:29:50;43.45;;;7.95;;
74213;SDS011;62576;55.694;37.494;2024-03-17T14:32:20;48.28;;;8.80;;
74213;SDS011;62576;55.694;37.494;2024-03-17T14:34:51;61.13;;;10.35;;
74213;SDS011;62576;55.694;37.494;2024-03-17T14:37:25;52.80;;;8.50;;
74213;SDS011;62576;55.694;37.494;2024-03-17T14:39:59;48.63;;;8.38;;
74213;SDS011;62576;55.694;37.494;2024-03-17T14:42:35;49.45;;;9.38;;
74213;SDS011;62576;55.694;37.494;2024-03-17T14:45:05;46.63;;;8.93;;
74213;SDS011;62576;55.694;37.494;2024-03-17T14:47:36;43.60;;;8.25;;
74213;SDS011;62576;55.694;37.494;2024-03-17T14:50:07;49.30;;;9.00;;
74213;SDS011;62576;55.694;37.494;2024-03-17T14:52:41;55.03;;;8.98;;
74213;SDS011;62576;55.694;37.494;2024-03-17T14:55:12;48.83;;;8.55;;
74213;SDS011;62576;55.694;37.494;2024-03-17T14:57:42;50.22;;;8.27;;
74213;SDS011;62576;55.694;37.494;2024-03-17T15:00:13;52.78;;;8.73;;
74213;SDS011;62576;55.694;37.494;2024-03-17T15:05:17;49.17;;;7.43;;
74213;SDS011;62576;55.694;37.494;2024-03-17T15:07:55;46.10;;;7.97;;
74213;SDS011;62576;55.694;37.494;2024-03-17T15:10:27;45.83;;;8.63;;
74213;SDS011;62576;55.694;37.494;2024-03-17T15:13:03;46.40;;;7.85;;
74213;SDS011;62576;55.694;37.494;2024-03-17T15:15:35;54.40;;;8.55;;
74213;SDS011;62576;55.694;37.494;2024-03-17T15:18:06;56.67;;;8.65;;
74213;SDS011;62576;55.694;37.494;2024-03-17T15:20:36;45.03;;;8.90;;
74213;SDS011;62576;55.694;37.494;2024-03-17T15:26:50;46.72;;;7.78;;
74213;SDS011;62576;55.694;37.494;2024-03-17T16:16:59;49.50;;;7.40;;
74213;SDS011;62576;55.694;37.494;2024-03-17T16:37:07;35.00;;;5.97;;
74213;SDS011;62576;55.694;37.494;2024-03-17T16:39:38;44.33;;;7.78;;
74213;SDS011;62576;55.694;37.494;2024-03-17T16:42:08;39.58;;;7.47;;
74213;SDS011;62576;55.694;37.494;2024-03-17T16:44:41;44.85;;;7.53;;
74213;SDS011;62576;55.694;37.494;2024-03-17T16:50:05;35.65;;;7.78;;
74213;SDS011;62576;55.694;37.494;2024-03-17T16:52:39;52.33;;;7.85;;
74213;SDS011;62576;55.694;37.494;2024-03-17T16:55:12;52.08;;;7.68;;
74213;SDS011;62576;55.694;37.494;2024-03-17T16:57:46;41.28;;;7.45;;
74213;SDS011;62576;55.694;37.494;2024-03-17T17:00:18;56.10;;;8.02;;
74213;SDS011;62576;55.694;37.494;2024-03-17T17:02:54;39.25;;;7.50;;
74213;SDS011;62576;55.694;37.494;2024-03-17T17:05:24;40.65;;;7.88;;
74213;SDS011;62576;55.694;37.494;2024-03-17T17:07:56;53.53;;;7.50;;
74213;SDS011;62576;55.694;37.494;2024-03-17T17:10:27;52.08;;;7.68;;
74213;SDS011;62576;55.694;37.494;2024-03-17T17:12:58;56.78;;;8.45;;
74213;SDS011;62576;55.694;37.494;2024-03-17T17:15:28;53.10;;;8.45;;
74213;SDS011;62576;55.694;37.494;2024-03-17T17:17:59;50.97;;;8.15;;
74213;SDS011;62576;55.694;37.494;2024-03-17T17:20:29;50.75;;;8.48;;
74213;SDS011;62576;55.694;37.494;2024-03-17T17:23:03;46.40;;;9.00;;
74213;SDS011;62576;55.694;37.494;2024-03-17T17:25:34;60.40;;;9.68;;
74213;SDS011;62576;55.694;37.494;2024-03-17T17:28:04;57.08;;;8.32;;
74213;SDS011;62576;55.694;37.494;2024-03-17T17:30:35;47.30;;;7.35;;
74213;SDS011;62576;55.694;37.494;2024-03-17T17:33:05;44.45;;;7.90;;
74213;SDS011;62576;55.694;37.494;2024-03-17T17:35:32;57.65;;;9.50;;
74213;SDS011;62576;55.694;37.494;2024-03-17T17:38:06;59.20;;;8.15;;
74213;SDS011;62576;55.694;37.494;2024-03-17T17:40:37;38.60;;;7.22;;
74213;SDS011;62576;55.694;37.494;2024-03-17T17:43:08;48.38;;;8.45;;
74213;SDS011;62576;55.694;37.494;2024-03-17T17:45:38;49.22;;;7.45;;
74213;SDS011;62576;55.694;37.494;2024-03-17T17:48:09;50.67;;;8.07;;
74213;SDS011;62576;55.694;37.494;2024-03-17T17:50:39;55.17;;;7.85;;
74213;SDS011;62576;55.694;37.494;2024-03-17T17:53:12;51.83;;;8.98;;
74213;SDS011;62576;55.694;37.494;2024-03-17T17:55:43;56.90;;;8.35;;
74213;SDS011;62576;55.694;37.494;2024-03-17T17:58:18;58.45;;;8.48;;
74213;SDS011;62576;55.694;37.494;2024-03-17T18:00:50;45.17;;;8.05;;
74213;SDS011;62576;55.694;37.494;2024-03-17T18:03:26;45.58;;;7.70;;
74213;SDS011;62576;55.694;37.494;2024-03-17T18:05:57;44.25;;;8.10;;
74213;SDS011;62576;55.694;37.494;2024-03-17T18:08:29;43.50;;;8.43;;
74213;SDS011;62576;55.694;37.494;2024-03-17T18:11:00;57.35;;;9.27;;
74213;SDS011;62576;55.694;37.494;2024-03-17T18:13:31;61.53;;;8.52;;
74213;SDS011;62576;55.694;37.494;2024-03-17T18:16:02;67.82;;;8.95;;
74213;SDS011;62576;55.694;37.494;2024-03-17T18:18:31;55.88;;;9.20;;
74213;SDS011;62576;55.694;37.494;2024-03-17T18:21:05;50.20;;;8.63;;
74213;SDS011;62576;55.694;37.494;2024-03-17T18:23:38;68.15;;;9.05;;
74213;SDS011;62576;55.694;37.494;2024-03-17T18:28:42;48.80;;;9.07;;
74213;SDS011;62576;55.694;37.494;2024-03-17T18:31:13;55.20;;;9.27;;
74213;SDS011;62576;55.694;37.494;2024-03-17T18:33:44;52.05;;;9.18;;
74213;SDS011;62576;55.694;37.494;2024-03-17T18:36:15;62.00;;;9.75;;
74213;SDS011;62576;55.694;37.494;2024-03-17T18:38:47;66.30;;;10.40;;
74213;SDS011;62576;55.694;37.494;2024-03-17T18:41:20;62.60;;;8.60;;
74213;SDS011;62576;55.694;37.494;2024-03-17T18:43:51;58.60;;;10.35;;
74213;SDS011;62576;55.694;37.494;2024-03-17T18:46:23;46.97;;;8.75;;
74213;SDS011;62576;55.694;37.494;2024-03-17T18:48:53;53.42;;;9.05;;
74213;SDS011;62576;55.694;37.494;2024-03-17T18:51:23;56.13;;;10.30;;
74213;SDS011;62576;55.694;37.494;2024-03-17T18:53:55;49.88;;;9.25;;
74213;SDS011;62576;55.694;37.494;2024-03-17T18:56:26;45.20;;;9.50;;
74213;SDS011;62576;55.694;37.494;2024-03-17T18:58:58;45.53;;;9.20;;
74213;SDS011;62576;55.694;37.494;2024-03-17T19:01:29;71.13;;;10.98;;
74213;SDS011;62576;55.694;37.494;2024-03-17T19:03:59;53.60;;;11.10;;
74213;SDS011;62576;55.694;37.494;2024-03-17T19:06:32;64.55;;;10.02;;